Time;durP1;ratioP1;P1;durP2;ratioP2;P2;SDS_P1;SDS_P2;PMS_P1;PMS_P2;Temp;Humidity;BMP_temperature;BMP_pressure;BME280_temperature;BME280_humidity;BME280_pressure;Samples;Min_cycle;Max_cycle;Signal;HPM_P1;HPM_P2
2022/03/05 16:07:46;;;;;;;;;;;0.00;99.90;;;;;;5043802;27;2617226;-96
2022/03/05 16:10:12;;;;;;;;;;;-0.10;99.90;;;;;;5106792;28;19904;-96
2022/03/05 16:12:37;;;;;;;;;;;0.00;99.90;;;;;;5125715;28;19960;-96
2022/03/05 16:15:44;;;;;;;;;;;0.10;99.90;;;;;;5209530;22;19932;-96
2022/03/05 16:18:14;;;;;;;;;;;0.20;99.90;;;;;;5089429;28;19904;-96
2022/03/05 16:20:55;;;;;;;;;;;0.30;99.90;;;;;;5113867;22;19925;-96
2022/03/05 16:23:20;;;;;;;;;;;0.40;99.90;;;;;;5060468;28;19947;-96
2022/03/05 16:25:49;;;;;;;;;;;0.50;99.90;;;;;;5077293;28;19916;-96
2022/03/05 16:28:16;;;;;;;;;;;0.60;99.90;;;;;;5069437;28;19919;-96
2022/03/05 16:30:42;;;;;;;;;;;0.60;99.90;;;;;;5070579;28;19903;-95
2022/03/05 16:33:11;;;;;;;;;;;0.70;99.90;;;;;;5062432;28;19936;-96
2022/03/05 16:35:37;;;;;;;;;;;0.80;99.90;;;;;;5059778;28;19913;-96
2022/03/05 16:38:07;;;;;;;;;;;0.80;99.90;;;;;;5068242;28;19944;-96
2022/03/05 16:40:38;;;;;;;;;;;0.90;99.90;;;;;;5068114;28;19960;-96
2022/03/05 16:45:34;;;;;;;;;;;1.00;99.90;;;;;;5084987;28;19931;-96
2022/03/05 16:48:03;;;;;;;;;;;1.00;99.90;;;;;;5054942;28;19917;-96
2022/03/05 17:37:37;;;;;;;;;;;-0.10;99.90;;;;;;4700136;22;12529730;-96
2022/03/05 17:40:03;;;;;;;;;;;-0.20;99.90;;;;;;4997596;28;19973;-94
2022/03/05 17:42:29;;;;;;;;;;;-0.10;99.90;;;;;;5003116;28;19953;-91
2022/03/05 17:44:54;;;;;;;;;;;-0.10;99.90;;;;;;4994229;28;19992;-91
2022/03/05 17:47:20;;;;;;;;;;;0.00;99.90;;;;;;4994528;28;19914;-89
2022/03/05 17:49:46;;;;;;;;;;;0.10;99.90;;;;;;5011482;28;20075;-91
2022/03/05 17:52:12;;;;;;;;;;;0.20;99.90;;;;;;4994284;28;19959;-91
2022/03/05 17:54:39;;;;;;;;;;;0.30;99.90;;;;;;4995759;28;19952;-93
2022/03/05 17:57:05;;;;;;;;;;;0.30;99.90;;;;;;4995014;28;19925;-92
2022/03/05 17:59:32;;;;;;;;;;;0.40;99.90;;;;;;4995062;28;19910;-92
2022/03/05 18:01:59;;;;;;;;;;;0.40;99.90;;;;;;4994840;28;19909;-91
2022/03/05 18:04:25;;;;;;;;;;;0.50;99.90;;;;;;4995668;28;20349;-90
2022/03/05 18:06:50;;;;;;;;;;;0.50;99.90;;;;;;4995459;28;19910;-92
2022/03/05 18:09:16;;;;;;;;;;;0.60;99.90;;;;;;4995013;28;20024;-91
2022/03/05 18:11:42;;;;;;;;;;;0.60;99.90;;;;;;4995166;28;19917;-91
2022/03/05 18:14:07;;;;;;;;;;;0.60;99.90;;;;;;4995416;28;19961;-93
2022/03/05 18:16:33;;;;;;;;;;;0.70;99.90;;;;;;4994412;28;19913;-92
2022/03/05 18:18:59;;;;;;;;;;;0.70;99.90;;;;;;4995563;28;19917;-92
2022/03/05 18:21:24;;;;;;;;;;;0.70;99.90;;;;;;4994920;28;19914;-91
2022/03/05 18:24:12;;;;;;;;;;;0.70;99.90;;;;;;4994629;28;19909;-96
2022/03/05 18:26:38;;;;;;;;;;;0.70;99.90;;;;;;4993651;28;19910;-92
2022/03/05 18:29:03;;;;;;;;;;;0.80;99.90;;;;;;5009210;28;19968;-92
2022/03/05 18:31:29;;;;;;;;;;;0.80;99.90;;;;;;4993346;28;20384;-93
2022/03/05 18:33:55;;;;;;;;;;;0.80;99.90;;;;;;4994061;28;19918;-91
2022/03/05 18:36:21;;;;;;;;;;;0.80;99.90;;;;;;4993786;28;19918;-93
2022/03/05 18:38:47;;;;;;;;;;;0.80;99.90;;;;;;5012264;28;19926;-92
2022/03/05 18:41:13;;;;;;;;;;;0.80;99.90;;;;;;4989369;28;19953;-94
